Time;durP1;ratioP1;P1;durP2;ratioP2;P2;SDS_P1;SDS_P2;PMS_P1;PMS_P2;Temp;Humidity;BMP_temperature;BMP_pressure;BME280_temperature;BME280_humidity;BME280_pressure;Samples;Min_cycle;Max_cycle;Signal;HPM_P1;HPM_P2
2022/04/21 00:00:24;;;;;;;5.40;4.90;;;;;;;2.55;100.00;95686.81;5015769;28;101904;-63
2022/04/21 00:02:51;;;;;;;5.40;4.90;;;;;;;2.37;100.00;95685.00;5026758;28;105658;-63
2022/04/21 00:05:18;;;;;;;5.73;5.20;;;;;;;2.62;100.00;95682.31;5044270;27;101846;-63
2022/04/21 00:07:48;;;;;;;7.57;5.03;;;;;;;2.51;100.00;95683.03;5027480;28;105551;-63
2022/04/21 00:10:17;;;;;;;6.10;5.17;;;;;;;2.41;100.00;95682.72;5026601;27;104389;-63
2022/04/21 00:12:45;;;;;;;6.10;5.10;;;;;;;2.23;100.00;95678.25;5027370;28;101746;-63
2022/04/21 00:15:13;;;;;;;5.43;4.93;;;;;;;2.30;100.00;95678.97;5027312;28;105142;-63
2022/04/21 00:17:42;;;;;;;5.10;4.60;;;;;;;2.45;100.00;95676.81;5043366;27;105766;-63
2022/04/21 00:20:11;;;;;;;9.10;6.07;;;;;;;2.51;100.00;95677.78;5044165;27;102005;-63
2022/04/21 00:25:22;;;;;;;7.50;5.63;;;;;;;2.50;100.00;95673.53;5027063;28;101960;-63
2022/04/21 00:27:49;;;;;;;7.27;5.70;;;;;;;2.31;100.00;95687.66;5010517;28;103639;-63
2022/04/21 00:30:18;;;;;;;6.27;5.63;;;;;;;2.31;100.00;95677.16;5009691;28;105318;-63
2022/04/21 00:32:47;;;;;;;6.23;5.50;;;;;;;2.35;100.00;95675.72;5027124;28;101766;-66
2022/04/21 00:35:15;;;;;;;6.40;5.33;;;;;;;2.45;100.00;95681.25;5027080;28;104793;-66
2022/04/21 00:37:50;;;;;;;7.00;6.13;;;;;;;2.34;100.00;95682.78;5026422;28;105795;-66
2022/04/21 00:40:19;;;;;;;6.83;6.03;;;;;;;2.47;100.00;95681.84;5026617;28;102191;-66
2022/04/21 00:42:47;;;;;;;7.97;6.27;;;;;;;2.38;100.00;95678.72;5026931;28;103856;-66
2022/04/21 00:45:14;;;;;;;10.30;6.47;;;;;;;2.39;100.00;95677.69;5029814;28;103843;-66
2022/04/21 00:47:43;;;;;;;6.37;5.77;;;;;;;2.45;100.00;95683.88;5043667;27;105542;-66
2022/04/21 00:50:18;;;;;;;6.67;6.00;;;;;;;2.59;100.00;95683.56;5009016;28;105758;-66
2022/04/21 00:52:46;;;;;;;8.37;6.17;;;;;;;2.58;100.00;95674.06;5011554;28;101764;-66
2022/04/21 00:55:14;;;;;;;7.23;6.53;;;;;;;2.68;100.00;95674.34;5027062;28;104083;-66
2022/04/21 00:57:44;;;;;;;9.50;6.40;;;;;;;2.44;100.00;95663.91;5025478;28;105246;-63
2022/04/21 01:00:12;;;;;;;6.63;5.90;;;;;;;2.07;100.00;95672.78;5010980;28;102711;-63
2022/04/21 01:02:49;;;;;;;6.77;6.00;;;;;;;1.77;100.00;95667.38;5011442;28;102337;-63
2022/04/21 01:05:25;;;;;;;7.27;5.73;;;;;;;1.91;100.00;95673.31;5025932;28;105207;-63
2022/04/21 01:07:53;;;;;;;6.13;5.20;;;;;;;2.02;100.00;95672.59;5014652;28;101638;-63
2022/04/21 01:10:20;;;;;;;7.43;5.80;;;;;;;2.17;100.00;95673.06;5008974;28;105057;-63
2022/04/21 01:12:48;;;;;;;6.07;5.47;;;;;;;2.18;100.00;95666.81;5026576;28;101856;-66
2022/04/21 01:15:16;;;;;;;6.27;5.67;;;;;;;2.12;100.00;95660.59;5011039;28;102328;-66
2022/04/21 01:17:45;;;;;;;6.87;5.90;;;;;;;1.99;100.00;95665.16;5025857;28;105773;-66
2022/04/21 01:20:16;;;;;;;6.47;5.87;;;;;;;1.91;100.00;95665.44;5025591;28;101990;-66
2022/04/21 01:22:43;;;;;;;6.20;5.50;;;;;;;1.88;100.00;95668.47;5010896;28;102601;-66
2022/04/21 01:25:12;;;;;;;5.70;5.20;;;;;;;1.97;100.00;95662.75;5025662;28;104975;-64
2022/04/21 01:27:39;;;;;;;5.87;5.30;;;;;;;1.83;100.00;95663.06;5009396;28;101955;-63
2022/04/21 01:30:08;;;;;;;5.97;5.33;;;;;;;1.70;100.00;95661.34;5028814;28;105166;-63
2022/04/21 01:32:36;;;;;;;5.60;5.10;;;;;;;1.68;100.00;95660.75;5026112;28;102165;-63
2022/04/21 01:35:05;;;;;;;5.50;4.90;;;;;;;1.43;100.00;95667.00;5010524;28;102679;-63
2022/04/21 01:43:04;;;;;;;5.07;4.57;;;;;;;1.13;100.00;95663.34;5026039;28;105158;-63
2022/04/21 01:45:32;;;;;;;5.50;5.00;;;;;;;1.09;100.00;95662.16;5025441;28;105138;-63
2022/04/21 01:47:59;;;;;;;5.73;5.20;;;;;;;0.98;100.00;95662.78;5025769;28;101833;-63
2022/04/21 01:50:27;;;;;;;6.03;5.30;;;;;;;1.10;100.00;95659.31;5025554;28;105444;-63
2022/04/21 01:52:58;;;;;;;6.73;5.33;;;;;;;1.12;100.00;95666.97;5028491;28;102601;-63
2022/04/21 01:55:26;;;;;;;5.07;4.57;;;;;;;1.22;100.00;95662.88;5025729;28;105158;-63
2022/04/21 01:57:53;;;;;;;5.57;4.93;;;;;;;1.32;100.00;95657.97;5024947;28;105452;-63
2022/04/21 02:00:19;;;;;;;5.30;4.80;;;;;;;1.37;100.00;95662.59;5042642;27;101871;-63
2022/04/21 02:02:46;;;;;;;7.47;5.40;;;;;;;1.43;100.00;95648.66;5025495;28;105582;-63
2022/04/21 02:05:14;;;;;;;6.73;5.17;;;;;;;1.36;100.00;95650.50;5042003;27;105353;-63
2022/04/21 02:07:42;;;;;;;7.47;5.13;;;;;;;1.19;100.00;95654.63;5042725;27;101988;-63
2022/04/21 02:10:11;;;;;;;6.43;5.60;;;;;;;1.36;100.00;95653.13;5042286;27;105145;-63
2022/04/21 02:12:38;;;;;;;5.30;4.80;;;;;;;1.15;100.00;95661.31;5013102;28;102847;-63
2022/04/21 02:15:06;;;;;;;6.10;5.20;;;;;;;0.99;100.00;95653.97;5042513;27;105298;-63
2022/04/21 02:17:35;;;;;;;5.40;4.90;;;;;;;1.05;100.00;95648.66;5008061;28;105382;-63
2022/04/21 02:20:03;;;;;;;6.10;5.10;;;;;;;1.27;100.00;95654.41;5042418;27;101799;-63
2022/04/21 02:22:30;;;;;;;5.90;5.30;;;;;;;1.29;100.00;95641.88;5042365;27;105324;-63
2022/04/21 02:24:57;;;;;;;5.73;5.17;;;;;;;1.36;100.00;95640.03;5024782;28;105461;-63
2022/04/21 02:27:25;;;;;;;6.30;5.53;;;;;;;1.53;100.00;95641.13;5025174;28;102125;-63
2022/04/21 02:29:52;;;;;;;7.90;5.50;;;;;;;1.40;100.00;95646.44;5042180;27;105098;-63
2022/04/21 02:32:20;;;;;;;6.13;5.10;;;;;;;1.46;100.00;95642.97;5041603;27;105323;-63
2022/04/21 02:34:47;;;;;;;6.03;5.30;;;;;;;1.31;100.00;95652.97;5028684;28;101901;-63
2022/04/21 02:37:14;;;;;;;7.27;5.30;;;;;;;1.24;100.00;95649.56;5024306;28;105084;-63
2022/04/21 02:39:41;;;;;;;6.87;5.70;;;;;;;1.35;100.00;95652.34;5025326;28;101992;-63
2022/04/21 02:42:09;;;;;;;6.03;5.43;;;;;;;1.37;100.00;95654.75;5024958;28;105883;-63
2022/04/21 02:44:37;;;;;;;6.47;5.87;;;;;;;1.44;100.00;95642.41;5009320;28;103666;-63
2022/04/21 02:47:06;;;;;;;6.20;5.60;;;;;;;1.33;100.00;95641.28;5042186;27;102258;-63
2022/04/21 02:49:33;;;;;;;6.23;5.60;;;;;;;1.26;100.00;95631.84;5041988;27;105626;-63
2022/04/21 02:52:01;;;;;;;6.67;6.00;;;;;;;1.22;100.00;95628.03;5024221;28;105471;-63
2022/04/21 02:57:21;;;;;;;5.97;5.37;;;;;;;1.27;100.00;95630.84;5027343;28;104761;-63
2022/04/21 02:59:51;;;;;;;7.13;5.77;;;;;;;1.27;100.00;95626.38;5025232;28;101866;-63
2022/04/21 03:02:18;;;;;;;8.53;6.37;;;;;;;1.33;100.00;95624.75;4991412;28;106097;-63
2022/04/21 03:04:46;;;;;;;6.27;5.43;;;;;;;1.27;100.00;95628.22;5041171;27;104088;-63
2022/04/21 03:07:13;;;;;;;7.50;5.67;;;;;;;1.23;100.00;95616.56;5009371;28;101850;-63
2022/04/21 03:09:40;;;;;;;6.67;5.97;;;;;;;1.23;100.00;95616.56;5008150;28;105497;-63
2022/04/21 03:12:10;;;;;;;6.53;5.93;;;;;;;1.24;100.00;95607.69;5040863;27;105652;-63
2022/04/21 03:14:38;;;;;;;6.87;6.13;;;;;;;1.24;100.00;95607.69;5041813;27;101771;-63
2022/04/21 03:17:08;;;;;;;6.30;5.70;;;;;;;1.37;100.00;95607.59;5024576;28;105911;-63
2022/04/21 03:19:37;;;;;;;7.87;6.23;;;;;;;1.32;100.00;95607.44;5027534;28;103910;-63
2022/04/21 03:24:50;;;;;;;8.30;5.90;;;;;;;1.44;100.00;95603.13;5023918;28;105120;-66
2022/04/21 03:27:17;;;;;;;6.07;5.47;;;;;;;1.19;100.00;95604.88;5041709;27;101917;-66
2022/04/21 03:29:44;;;;;;;7.07;5.40;;;;;;;0.90;100.00;95608.09;5007682;28;105413;-66
2022/04/21 03:32:18;;;;;;;7.17;5.47;;;;;;;1.15;100.00;95596.66;5040862;27;105817;-66
2022/04/21 03:34:45;;;;;;;7.23;5.87;;;;;;;1.32;100.00;95591.72;5024438;28;101777;-66
2022/04/21 03:37:15;;;;;;;7.77;6.17;;;;;;;1.39;100.00;95593.28;5041285;27;103608;-66
2022/04/21 03:39:43;;;;;;;9.10;6.23;;;;;;;1.44;100.00;95588.22;5023803;28;105335;-66
2022/04/21 03:42:19;;;;;;;9.47;6.90;;;;;;;1.58;100.00;95583.66;5044793;27;102565;-66
2022/04/21 03:44:46;;;;;;;8.10;7.30;;;;;;;1.60;100.00;95586.88;5025434;27;105379;-66
2022/04/21 03:47:15;;;;;;;9.87;7.40;;;;;;;1.51;100.00;95594.19;5010999;28;101822;-66
2022/04/21 03:49:43;;;;;;;7.80;6.80;;;;;;;1.05;100.00;95592.91;5010824;28;105808;-66
2022/04/21 03:52:11;;;;;;;7.00;5.90;;;;;;;1.07;100.00;95590.88;5027373;28;104947;-63
2022/04/21 03:54:38;;;;;;;6.87;5.60;;;;;;;1.00;100.00;95588.28;5027511;28;101750;-63
2022/04/21 03:57:05;;;;;;;6.47;5.80;;;;;;;1.18;100.00;95585.78;5027244;28;105269;-63
2022/04/21 03:59:33;;;;;;;9.63;5.97;;;;;;;1.33;100.00;95582.84;5043916;27;103744;-63
2022/04/21 04:02:02;;;;;;;7.33;6.20;;;;;;;1.19;100.00;95573.47;5030812;28;101889;-63
2022/04/21 04:04:31;;;;;;;7.03;5.83;;;;;;;1.24;100.00;95571.84;5043732;27;105424;-63
2022/04/21 04:12:40;;;;;;;9.57;6.80;;;;;;;1.10;100.00;95582.63;5002535;28;104936;-63
2022/04/21 04:15:09;;;;;;;9.10;6.70;;;;;;;1.23;100.00;95577.28;5010710;28;101895;-63
2022/04/21 04:17:36;;;;;;;8.73;7.23;;;;;;;1.19;100.00;95578.72;5026961;28;105213;-63
2022/04/21 04:20:06;;;;;;;10.60;7.90;;;;;;;1.16;100.00;95579.16;5026756;28;104854;-63
2022/04/21 04:22:35;;;;;;;14.70;9.27;;;;;;;1.22;100.00;95578.28;5012280;28;101757;-63
2022/04/21 04:25:02;;;;;;;9.33;8.33;;;;;;;1.35;100.00;95579.00;5030224;28;104787;-63
2022/04/21 04:27:29;;;;;;;9.63;7.47;;;;;;;1.48;100.00;95583.34;5026950;28;101928;-63
2022/04/21 04:29:56;;;;;;;9.87;8.77;;;;;;;1.49;100.00;95587.56;5010639;27;105127;-63
2022/04/21 04:32:23;;;;;;;10.37;8.40;;;;;;;1.39;100.00;95579.38;5029631;28;105725;-63
2022/04/21 04:34:50;;;;;;;9.63;8.37;;;;;;;1.37;100.00;95586.66;5031864;28;101897;-63
2022/04/21 04:37:19;;;;;;;11.43;8.70;;;;;;;1.37;100.00;95586.66;5030569;28;103595;-63
2022/04/21 04:39:46;;;;;;;10.13;9.10;;;;;;;1.42;100.00;95589.44;5029568;28;104586;-63
2022/04/21 04:42:21;;;;;;;11.30;8.30;;;;;;;1.66;100.00;95583.38;5031454;28;101877;-63
2022/04/21 04:46:34;;;;;;;11.10;8.40;;;;;;;1.91;100.00;95579.72;5030257;28;105217;-63
2022/04/21 04:47:36;;;;;;;9.87;8.87;;;;;;;2.16;100.00;95585.72;5034048;28;103117;-63
2022/04/21 04:50:03;;;;;;;8.93;8.03;;;;;;;2.22;100.00;95587.47;5030256;28;104787;-63
2022/04/21 04:52:32;;;;;;;11.07;9.10;;;;;;;2.36;100.00;95588.91;5031065;28;102641;-63
2022/04/21 04:54:59;;;;;;;11.33;9.30;;;;;;;2.46;100.00;95588.44;5029720;27;102097;-63
2022/04/21 04:57:26;;;;;;;11.23;9.07;;;;;;;2.54;100.00;95585.50;5028598;28;104095;-66
2022/04/21 04:59:53;;;;;;;10.53;8.90;;;;;;;2.68;100.00;95586.94;5029596;28;103719;-66
2022/04/21 05:02:20;;;;;;;10.70;9.17;;;;;;;2.85;100.00;95582.69;5029686;28;102532;-66
2022/04/21 05:04:47;;;;;;;9.63;8.73;;;;;;;2.79;100.00;95583.59;5029889;28;104899;-66
2022/04/21 05:07:14;;;;;;;10.17;9.17;;;;;;;2.87;100.00;95589.31;5029488;28;104203;-66
2022/04/21 05:09:43;;;;;;;10.40;8.97;;;;;;;2.99;100.00;95589.34;5033290;28;101878;-66
2022/04/21 05:12:11;;;;;;;22.47;14.00;;;;;;;3.09;100.00;95582.56;5028897;28;105425;-66
2022/04/21 05:14:39;;;;;;;16.03;10.70;;;;;;;3.16;100.00;95590.34;5028600;28;101828;-66
2022/04/21 05:17:05;;;;;;;17.80;12.03;;;;;;;3.23;100.00;95589.19;5030363;28;103001;-66
2022/04/21 05:19:33;;;;;;;21.57;15.60;;;;;;;3.30;100.00;95589.13;5028241;28;105457;-66
2022/04/21 05:22:03;;;;;;;18.63;13.90;;;;;;;3.33;100.00;95591.31;5028805;28;102021;-66
2022/04/21 05:24:31;;;;;;;20.80;14.70;;;;;;;3.37;100.00;95592.44;5028230;28;104927;-66
2022/04/21 05:27:01;;;;;;;13.07;10.20;;;;;;;3.44;100.00;95593.94;5027955;28;105164;-66
2022/04/21 05:32:17;;;;;;;9.63;7.90;;;;;;;3.57;100.00;95600.84;5032158;28;104886;-66
2022/04/21 05:34:44;;;;;;;10.00;8.00;;;;;;;3.69;100.00;95606.91;5029623;28;102008;-63
2022/04/21 05:37:13;;;;;;;9.23;7.53;;;;;;;3.72;100.00;95602.00;5063308;27;104808;-63
2022/04/21 05:39:40;;;;;;;8.90;8.00;;;;;;;3.82;100.00;95598.81;5028541;28;105663;-63
2022/04/21 05:42:17;;;;;;;8.90;8.00;;;;;;;3.91;100.00;95607.97;5029292;28;101839;-63
2022/04/21 05:44:45;;;;;;;8.40;7.50;;;;;;;3.90;100.00;95606.38;5028877;28;106111;-63
2022/04/21 05:47:13;;;;;;;9.30;7.53;;;;;;;3.91;100.00;95605.31;5028842;28;104281;-63
2022/04/21 05:49:40;;;;;;;9.47;7.43;;;;;;;3.95;100.00;95606.47;5029241;28;102155;-63
2022/04/21 05:52:09;;;;;;;8.37;7.37;;;;;;;4.14;100.00;95608.78;5063443;27;104878;-63
2022/04/21 05:54:36;;;;;;;8.10;7.30;;;;;;;4.23;100.00;95599.50;5031724;28;104298;-63
2022/04/21 05:57:04;;;;;;;8.33;7.53;;;;;;;4.39;100.00;95604.06;5028449;28;103890;-63
2022/04/21 05:59:32;;;;;;;12.03;8.30;;;;;;;4.38;100.00;95604.31;5028887;28;103760;-63
2022/04/21 06:02:01;;;;;;;9.23;8.30;;;;;;;4.25;100.00;95592.19;5028965;28;101937;-63
2022/04/21 06:04:28;;;;;;;7.63;6.90;;;;;;;4.38;100.00;95596.41;5029085;28;103897;-63
2022/04/21 06:06:55;;;;;;;8.17;7.37;;;;;;;4.46;100.00;95596.03;5028055;28;105736;-63
2022/04/21 06:09:22;;;;;;;7.40;6.70;;;;;;;4.46;100.00;95591.59;5028518;28;101884;-63
2022/04/21 06:11:51;;;;;;;8.90;7.33;;;;;;;4.18;100.00;95591.50;5028685;28;105467;-63
2022/04/21 06:14:19;;;;;;;7.47;6.77;;;;;;;4.33;100.00;95588.41;5031777;28;105270;-63
2022/04/21 06:16:48;;;;;;;9.07;6.77;;;;;;;4.36;100.00;95591.38;5062892;27;105284;-63
2022/04/21 06:19:14;;;;;;;10.60;6.87;;;;;;;4.81;100.00;95596.78;5028271;28;105403;-63
2022/04/21 06:21:43;;;;;;;7.93;7.13;;;;;;;5.01;100.00;95597.97;5028706;28;101861;-63
2022/04/21 06:24:10;;;;;;;8.33;7.50;;;;;;;4.85;100.00;95597.91;5028610;28;105592;-63
2022/04/21 06:26:38;;;;;;;9.33;7.80;;;;;;;5.11;100.00;95597.34;5028079;28;105921;-63
2022/04/21 06:29:05;;;;;;;8.73;7.10;;;;;;;4.66;100.00;95588.56;5028719;28;101859;-63
2022/04/21 06:31:36;;;;;;;7.93;7.23;;;;;;;4.78;100.00;95594.59;5028669;28;105100;-63
2022/04/21 06:34:05;;;;;;;9.47;7.70;;;;;;;5.22;100.00;95594.66;5027380;28;104962;-63
2022/04/21 06:36:33;;;;;;;11.30;8.10;;;;;;;5.33;100.00;95598.28;5031862;28;101892;-63
2022/04/21 06:39:01;;;;;;;8.07;7.10;;;;;;;5.80;100.00;95589.91;5027892;28;105730;-63
2022/04/21 06:41:29;;;;;;;8.47;7.43;;;;;;;6.00;100.00;95587.56;5028382;28;101825;-63
2022/04/21 06:49:27;;;;;;;7.97;7.17;;;;;;;6.38;100.00;95592.09;5028544;28;101825;-63
2022/04/21 06:51:55;;;;;;;8.50;6.87;;;;;;;5.81;100.00;95593.31;5028277;28;105283;-63
2022/04/21 06:54:22;;;;;;;8.10;7.30;;;;;;;6.23;100.00;95591.88;5029137;27;103007;-63
2022/04/21 06:56:49;;;;;;;8.40;6.77;;;;;;;6.60;100.00;95591.06;5027993;28;101995;-63
2022/04/21 06:59:17;;;;;;;8.30;7.13;;;;;;;6.80;100.00;95585.22;5032611;28;102912;-63
2022/04/21 07:01:46;;;;;;;8.27;7.30;;;;;;;6.75;100.00;95579.88;5028169;28;101950;-63
2022/04/21 07:04:13;;;;;;;7.83;7.00;;;;;;;7.11;100.00;95584.53;5028462;28;102615;-63
2022/04/21 07:06:43;;;;;;;8.13;7.03;;;;;;;7.34;100.00;95578.97;5028590;28;103122;-63
2022/04/21 07:09:11;;;;;;;9.03;6.57;;;;;;;7.35;100.00;95575.25;5029641;28;102068;-63
2022/04/21 07:11:39;;;;;;;7.50;6.80;;;;;;;7.33;100.00;95580.00;5028072;28;105374;-63
2022/04/21 07:14:06;;;;;;;8.63;7.27;;;;;;;7.64;100.00;95576.59;5027662;28;104931;-63
2022/04/21 07:16:34;;;;;;;7.50;6.80;;;;;;;8.10;100.00;95578.56;5029560;28;101863;-63
2022/04/21 07:19:01;;;;;;;7.80;7.00;;;;;;;8.06;100.00;95572.16;5028658;27;105127;-63
2022/04/21 07:21:28;;;;;;;6.90;6.20;;;;;;;8.15;100.00;95574.09;5034349;28;105260;-63
2022/04/21 07:23:57;;;;;;;10.47;6.90;;;;;;;8.40;100.00;95571.63;5031432;28;104829;-63
2022/04/21 07:26:23;;;;;;;10.37;7.20;;;;;;;8.64;100.00;95577.34;5031064;28;104992;-63
2022/04/21 07:28:51;;;;;;;7.87;6.60;;;;;;;8.83;100.00;95573.19;5031644;28;102399;-63
2022/04/21 07:31:17;;;;;;;7.63;6.30;;;;;;;8.87;100.00;95569.75;5031616;28;103935;-63
2022/04/21 07:33:44;;;;;;;6.90;6.20;;;;;;;9.32;100.00;95571.78;5030731;28;105609;-63
2022/04/21 07:36:11;;;;;;;7.03;6.10;;;;;;;9.43;100.00;95565.41;5031000;28;102184;-63
2022/04/21 07:38:38;;;;;;;7.10;6.27;;;;;;;9.05;100.00;95560.56;5031451;28;104895;-63
2022/04/21 07:41:07;;;;;;;10.10;6.40;;;;;;;9.33;100.00;95568.81;5030432;28;105019;-63
2022/04/21 07:43:34;;;;;;;7.07;5.83;;;;;;;9.35;100.00;95565.91;5034710;28;101738;-63
2022/04/21 07:46:02;;;;;;;6.93;6.13;;;;;;;9.38;100.00;95560.88;5030375;28;105578;-63
2022/04/21 07:49:44;;;;;;;7.10;6.33;;;;;;;9.41;100.00;95559.56;5031338;28;102457;-63
2022/04/21 07:51:16;;;;;;;7.07;6.10;;;;;;;9.79;100.00;95562.53;5030468;28;104142;-63
2022/04/21 07:53:41;;;;;;;7.97;7.17;;;;;;;9.81;100.00;95555.09;5030533;28;104198;-63
2022/04/21 07:56:10;;;;;;;8.10;6.50;;;;;;;8.95;100.00;95561.28;5030461;28;101892;-63
2022/04/21 07:58:38;;;;;;;7.60;6.90;;;;;;;9.10;100.00;95557.91;5031093;28;105065;-63
2022/04/21 08:01:05;;;;;;;8.50;6.40;;;;;;;9.44;100.00;95564.34;5030451;28;105342;-63
2022/04/21 08:03:37;;;;;;;6.77;6.03;;;;;;;9.72;100.00;95556.69;5030835;28;101781;-63
2022/04/21 08:06:04;;;;;;;7.60;6.80;;;;;;;10.36;100.00;95556.97;5033699;28;104906;-63
2022/04/21 08:08:32;;;;;;;7.73;6.93;;;;;;;10.60;100.00;95550.78;5030657;28;101979;-63
2022/04/21 08:10:59;;;;;;;7.97;5.97;;;;;;;10.94;100.00;95549.06;5030681;28;105216;-63
2022/04/21 08:13:29;;;;;;;6.53;5.93;;;;;;;11.18;100.00;95546.56;5030206;28;105378;-63
2022/04/21 08:15:55;;;;;;;6.47;5.73;;;;;;;11.19;100.00;95551.63;5030668;28;102112;-63
2022/04/21 08:18:23;;;;;;;8.23;5.70;;;;;;;11.16;100.00;95541.50;5030438;28;105457;-63
2022/04/21 08:20:53;;;;;;;6.20;5.27;;;;;;;11.22;100.00;95539.59;5030152;28;105893;-63
2022/04/21 08:23:20;;;;;;;6.77;5.30;;;;;;;11.02;94.08;95542.38;5030830;28;101967;-63
2022/04/21 08:34:03;;;;;;;7.90;5.50;;;;;;;11.75;90.66;95533.44;5029685;28;105809;-63
2022/04/21 08:36:30;;;;;;;6.00;5.40;;;;;;;11.62;89.40;95539.41;5030451;28;102554;-63
2022/04/21 08:38:57;;;;;;;6.40;5.40;;;;;;;12.11;90.75;95537.41;5030494;28;105225;-63
2022/04/21 08:41:28;;;;;;;6.13;5.50;;;;;;;12.42;87.15;95534.16;5029570;28;105928;-63
2022/04/21 08:44:03;;;;;;;7.03;5.13;;;;;;;12.34;92.51;95531.31;5030045;28;102219;-63
2022/04/21 08:46:34;;;;;;;6.40;5.80;;;;;;;12.61;88.11;95537.72;5030401;28;104823;-63
2022/04/21 08:49:03;;;;;;;6.73;5.57;;;;;;;12.00;91.39;95530.59;5033177;28;104646;-63
2022/04/21 08:51:33;;;;;;;6.53;5.93;;;;;;;11.75;95.17;95528.09;5031587;28;102380;-63
2022/04/21 08:54:02;;;;;;;6.83;6.13;;;;;;;11.88;98.05;95530.16;5029228;28;105104;-63
2022/04/21 08:56:30;;;;;;;8.97;6.33;;;;;;;11.98;95.74;95535.38;5029688;28;105168;-63
2022/04/21 08:58:59;;;;;;;6.50;5.90;;;;;;;12.20;91.02;95530.38;5030118;28;105679;-63
2022/04/21 09:01:27;;;;;;;7.00;6.30;;;;;;;12.17;98.04;95528.28;5030625;28;102485;-63
2022/04/21 09:03:53;;;;;;;6.83;6.13;;;;;;;12.01;94.71;95521.50;5029930;28;101868;-63
2022/04/21 09:06:21;;;;;;;6.70;5.87;;;;;;;12.78;90.30;95523.91;5029941;28;105055;-62
2022/04/21 09:09:13;;;;;;;7.10;6.00;;;;;;;12.57;94.43;95518.03;5029222;28;105803;-62
2022/04/21 09:11:42;;;;;;;7.07;6.07;;;;;;;13.26;95.54;95520.16;5033170;28;101856;-62
2022/04/21 09:14:15;;;;;;;6.83;6.13;;;;;;;13.41;84.60;95514.59;5029252;28;105168;-63
2022/04/21 09:16:41;;;;;;;7.87;5.80;;;;;;;12.83;77.18;95514.00;5047206;27;102316;-63
2022/04/21 09:19:08;;;;;;;5.90;5.33;;;;;;;13.71;78.84;95512.28;5031071;27;102771;-62
2022/04/21 09:21:37;;;;;;;6.53;5.30;;;;;;;14.08;82.96;95509.53;5029209;28;103922;-63
2022/04/21 09:24:20;;;;;;;6.07;5.23;;;;;;;14.02;70.83;95505.34;5029786;28;101823;-62
2022/04/21 09:26:47;;;;;;;6.20;5.60;;;;;;;13.28;85.36;95520.63;5031069;28;102519;-62
2022/04/21 09:29:23;;;;;;;6.33;5.77;;;;;;;13.30;78.03;95521.94;5028938;28;105971;-63
2022/04/21 09:31:56;;;;;;;6.73;6.03;;;;;;;13.53;85.08;95509.59;5030924;27;102282;-63
2022/04/21 09:34:23;;;;;;;6.90;5.47;;;;;;;14.63;78.72;95508.56;5032469;28;103659;-63
2022/04/21 09:36:50;;;;;;;6.53;5.93;;;;;;;14.85;72.86;95497.16;5029596;28;101964;-63
2022/04/21 09:39:17;;;;;;;6.57;5.87;;;;;;;13.45;71.54;95499.56;5012794;28;104818;-62
2022/04/21 09:41:44;;;;;;;6.20;5.70;;;;;;;13.99;74.04;95500.59;5029187;27;102520;-63
2022/04/21 09:46:56;;;;;;;6.93;6.20;;;;;;;13.80;75.07;95496.38;5027723;28;105320;-63
2022/04/21 09:49:34;;;;;;;7.37;5.90;;;;;;;14.60;76.83;95486.97;5029944;27;104028;-63
2022/04/21 09:52:01;;;;;;;6.80;6.10;;;;;;;13.72;75.03;95494.34;5029141;28;101933;-62
2022/04/21 09:54:30;;;;;;;6.37;5.77;;;;;;;14.56;76.69;95486.75;5030601;28;102285;-63
2022/04/21 09:56:58;;;;;;;6.30;5.70;;;;;;;15.41;71.69;95471.59;5031888;28;105167;-63
2022/04/21 09:59:26;;;;;;;6.10;5.50;;;;;;;15.72;61.18;95480.53;5030430;28;103001;-63
2022/04/21 10:01:55;;;;;;;8.17;5.97;;;;;;;16.18;63.25;95470.28;5028089;28;105114;-63
2022/04/21 10:04:21;;;;;;;6.30;5.70;;;;;;;16.33;60.92;95474.44;5030722;28;102268;-63
2022/04/21 10:06:49;;;;;;;6.40;5.47;;;;;;;15.32;53.98;95473.38;5028653;28;105402;-63
2022/04/21 10:09:17;;;;;;;5.57;5.07;;;;;;;15.65;58.43;95471.34;5028477;28;105028;-62
2022/04/21 10:11:44;;;;;;;7.33;6.40;;;;;;;14.40;59.76;95471.28;5028813;28;101941;-63
2022/04/21 10:14:15;;;;;;;7.27;5.07;;;;;;;15.45;69.65;95464.56;5028835;28;105612;-63
2022/04/21 10:16:43;;;;;;;6.40;5.80;;;;;;;15.99;61.22;95463.53;5029461;28;102767;-63
2022/04/21 10:19:16;;;;;;;4.87;4.30;;;;;;;16.42;52.93;95462.72;5032498;28;101775;-62
2022/04/21 10:21:51;;;;;;;4.53;4.13;;;;;;;16.67;49.09;95459.31;5028197;28;105534;-63
2022/04/21 10:24:22;;;;;;;4.83;4.43;;;;;;;16.67;49.53;95459.31;5028609;28;101939;-63
2022/04/21 10:26:49;;;;;;;5.13;4.70;;;;;;;14.97;48.94;95450.06;5028717;28;104079;-63
2022/04/21 10:29:17;;;;;;;4.73;4.33;;;;;;;16.31;54.65;95458.69;5028002;28;105484;-62
2022/04/21 10:31:51;;;;;;;4.80;4.30;;;;;;;16.76;53.01;95456.66;5028527;28;102017;-63
2022/04/21 10:34:32;;;;;;;5.00;4.60;;;;;;;16.91;50.80;95446.31;5028463;28;105870;-63
2022/04/21 10:37:07;;;;;;;6.10;4.53;;;;;;;16.77;51.96;95451.00;5027973;28;106111;-63
2022/04/21 10:39:34;;;;;;;4.53;4.20;;;;;;;17.46;48.22;95438.50;5032016;28;101858;-63
2022/04/21 10:42:18;;;;;;;5.10;4.60;;;;;;;17.57;48.44;95447.81;5029365;27;102681;-63
2022/04/21 10:44:50;;;;;;;5.13;4.73;;;;;;;17.78;45.30;95436.13;5029773;27;102036;-63
2022/04/21 10:47:31;;;;;;;4.93;4.37;;;;;;;17.38;41.61;95425.81;5028432;28;104041;-63
2022/04/21 10:50:02;;;;;;;5.03;4.60;;;;;;;17.36;45.54;95422.63;5029368;27;103008;-63
2022/04/21 10:58:52;;;;;;;5.30;4.30;;;;;;;17.82;45.54;95414.75;5032246;27;104872;-63
2022/04/21 11:01:38;;;;;;;5.57;4.40;;;;;;;18.34;43.24;95421.59;5033045;28;101790;-63
2022/04/21 11:04:20;;;;;;;4.77;4.30;;;;;;;18.42;41.09;95418.09;5034688;28;105208;-63
2022/04/21 11:06:51;;;;;;;4.30;4.00;;;;;;;18.31;39.86;95411.47;5032010;28;102073;-63
2022/04/21 11:09:36;;;;;;;5.53;4.30;;;;;;;18.47;40.70;95405.25;5033489;27;102306;-63
2022/04/21 11:12:05;;;;;;;4.20;3.80;;;;;;;19.05;40.86;95409.84;5031764;28;103195;-63
2022/04/21 11:14:33;;;;;;;4.47;4.07;;;;;;;19.13;39.44;95403.63;5065728;27;101852;-63
2022/04/21 11:17:01;;;;;;;4.40;4.00;;;;;;;19.32;39.30;95394.00;5031659;28;105537;-63
2022/04/21 11:19:53;;;;;;;4.27;3.87;;;;;;;19.39;40.09;95401.53;5030885;28;104318;-63
2022/04/21 11:22:41;;;;;;;4.40;4.10;;;;;;;19.27;38.79;95399.59;5028001;27;101876;-63
2022/04/21 11:25:09;;;;;;;5.10;4.07;;;;;;;19.42;39.36;95390.91;5031625;28;105600;-63
2022/04/21 11:27:42;;;;;;;4.33;4.03;;;;;;;19.17;39.92;95391.84;5034286;28;105995;-63
2022/04/21 11:30:12;;;;;;;4.43;4.10;;;;;;;19.54;38.99;95393.66;5031393;28;105462;-63
2022/04/21 11:32:40;;;;;;;4.50;4.10;;;;;;;19.75;39.52;95388.22;5030715;28;103813;-63
2022/04/21 11:35:11;;;;;;;4.67;4.27;;;;;;;19.51;39.63;95383.53;5031452;28;102136;-63
2022/04/21 11:37:48;;;;;;;4.50;4.10;;;;;;;19.54;39.25;95385.56;5031532;28;105216;-63
2022/04/21 11:40:20;;;;;;;4.80;4.40;;;;;;;19.67;38.77;95381.03;5030363;28;106139;-63
2022/04/21 11:42:49;;;;;;;4.37;3.97;;;;;;;20.00;38.13;95389.91;5032618;28;102038;-63
2022/04/21 11:45:20;;;;;;;5.27;4.77;;;;;;;19.85;39.34;95385.94;5032671;27;102342;-63
2022/04/21 11:47:47;;;;;;;4.67;4.30;;;;;;;20.06;38.95;95377.75;5030526;28;103778;-63
2022/04/21 11:50:20;;;;;;;5.03;4.30;;;;;;;19.47;39.13;95388.03;5036027;28;101976;-63
2022/04/21 11:52:54;;;;;;;4.20;3.90;;;;;;;19.62;39.47;95378.53;5030409;28;105257;-63
2022/04/21 11:55:26;;;;;;;3.87;3.57;;;;;;;20.08;38.54;95367.44;5030934;28;101792;-63
2022/04/21 11:57:53;;;;;;;4.00;3.70;;;;;;;19.87;38.03;95366.69;5032425;28;103061;-63
2022/04/21 12:08:35;;;;;;;4.37;3.97;;;;;;;19.93;36.95;95365.34;5030381;28;105153;-63
2022/04/21 12:11:02;;;;;;;3.83;3.43;;;;;;;20.20;36.56;95367.47;5030771;28;101765;-63
2022/04/21 12:13:30;;;;;;;4.30;3.50;;;;;;;20.39;35.86;95360.41;5035324;28;102381;-63
2022/04/21 12:15:57;;;;;;;3.93;3.63;;;;;;;20.18;36.28;95365.13;5031778;28;102157;-63
2022/04/21 12:18:24;;;;;;;3.93;3.63;;;;;;;20.19;35.20;95363.19;5030920;28;105116;-63
2022/04/21 12:20:55;;;;;;;3.57;3.27;;;;;;;20.78;35.45;95353.53;5030305;28;105341;-63
2022/04/21 12:23:27;;;;;;;4.40;4.10;;;;;;;20.58;35.59;95354.44;5030657;28;101856;-63
2022/04/21 12:25:58;;;;;;;4.43;3.67;;;;;;;20.34;36.12;95349.03;5030323;28;105539;-63